sensor_id;sensor_type;location;lat;lon;timestamp;temperature;humidity
19214;DHT22;9741;51.020;5.304;2023-07-13T00:01:50;17.20;50.30
19214;DHT22;9741;51.020;5.304;2023-07-13T00:04:18;17.20;50.40
19214;DHT22;9741;51.020;5.304;2023-07-13T00:06:45;17.10;50.40
19214;DHT22;9741;51.020;5.304;2023-07-13T00:09:13;17.10;50.50
19214;DHT22;9741;51.020;5.304;2023-07-13T00:11:40;17.10;50.70
19214;DHT22;9741;51.020;5.304;2023-07-13T00:14:08;17.10;50.80
19214;DHT22;9741;51.020;5.304;2023-07-13T00:16:38;17.10;50.90
19214;DHT22;9741;51.020;5.304;2023-07-13T00:19:06;17.10;51.00
19214;DHT22;9741;51.020;5.304;2023-07-13T00:21:33;17.10;51.00
19214;DHT22;9741;51.020;5.304;2023-07-13T00:24:00;17.10;51.10
19214;DHT22;9741;51.020;5.304;2023-07-13T00:26:28;17.10;51.20
19214;DHT22;9741;51.020;5.304;2023-07-13T00:28:55;17.10;51.20
19214;DHT22;9741;51.020;5.304;2023-07-13T00:31:22;17.00;51.20
19214;DHT22;9741;51.020;5.304;2023-07-13T00:33:51;17.00;51.30
19214;DHT22;9741;51.020;5.304;2023-07-13T00:36:19;17.00;51.50
19214;DHT22;9741;51.020;5.304;2023-07-13T00:38:46;17.00;51.50
19214;DHT22;9741;51.020;5.304;2023-07-13T00:41:14;17.00;51.60
19214;DHT22;9741;51.020;5.304;2023-07-13T00:43:41;17.00;51.80
19214;DHT22;9741;51.020;5.304;2023-07-13T00:46:24;16.90;51.70
19214;DHT22;9741;51.020;5.304;2023-07-13T00:48:54;16.90;51.70
19214;DHT22;9741;51.020;5.304;2023-07-13T00:51:27;16.90;51.90
19214;DHT22;9741;51.020;5.304;2023-07-13T00:53:57;16.80;52.00
19214;DHT22;9741;51.020;5.304;2023-07-13T00:56:25;16.80;52.00
19214;DHT22;9741;51.020;5.304;2023-07-13T00:58:54;16.70;52.00
19214;DHT22;9741;51.020;5.304;2023-07-13T01:01:22;16.70;52.10
19214;DHT22;9741;51.020;5.304;2023-07-13T01:03:49;16.70;52.20
19214;DHT22;9741;51.020;5.304;2023-07-13T01:06:17;16.70;52.40
19214;DHT22;9741;51.020;5.304;2023-07-13T01:08:44;16.60;52.40
19214;DHT22;9741;51.020;5.304;2023-07-13T01:11:11;16.60;52.50
19214;DHT22;9741;51.020;5.304;2023-07-13T01:13:38;16.60;53.20
19214;DHT22;9741;51.020;5.304;2023-07-13T01:16:13;16.60;52.70
19214;DHT22;9741;51.020;5.304;2023-07-13T01:18:41;16.50;52.70
19214;DHT22;9741;51.020;5.304;2023-07-13T01:21:10;16.50;52.80
19214;DHT22;9741;51.020;5.304;2023-07-13T01:23:37;16.50;52.90
19214;DHT22;9741;51.020;5.304;2023-07-13T01:26:04;16.50;53.00
19214;DHT22;9741;51.020;5.304;2023-07-13T01:28:31;16.50;53.10
19214;DHT22;9741;51.020;5.304;2023-07-13T01:31:03;16.40;53.20
19214;DHT22;9741;51.020;5.304;2023-07-13T01:33:30;16.40;53.30
19214;DHT22;9741;51.020;5.304;2023-07-13T01:35:57;16.40;53.40
19214;DHT22;9741;51.020;5.304;2023-07-13T01:38:26;16.40;53.50
19214;DHT22;9741;51.020;5.304;2023-07-13T01:40:54;16.40;53.60
19214;DHT22;9741;51.020;5.304;2023-07-13T01:43:21;16.40;53.70
19214;DHT22;9741;51.020;5.304;2023-07-13T01:45:48;16.30;53.70
19214;DHT22;9741;51.020;5.304;2023-07-13T01:48:15;16.40;53.90
19214;DHT22;9741;51.020;5.304;2023-07-13T01:50:42;16.40;54.00
19214;DHT22;9741;51.020;5.304;2023-07-13T01:53:09;16.30;53.90
19214;DHT22;9741;51.020;5.304;2023-07-13T01:55:37;16.30;54.10
19214;DHT22;9741;51.020;5.304;2023-07-13T01:58:05;16.30;54.20
19214;DHT22;9741;51.020;5.304;2023-07-13T02:00:32;16.30;54.30
19214;DHT22;9741;51.020;5.304;2023-07-13T02:02:59;16.30;54.40
19214;DHT22;9741;51.020;5.304;2023-07-13T02:05:26;16.30;54.40
19214;DHT22;9741;51.020;5.304;2023-07-13T02:07:53;16.30;54.50
19214;DHT22;9741;51.020;5.304;2023-07-13T02:10:21;16.30;54.60
19214;DHT22;9741;51.020;5.304;2023-07-13T02:12:50;16.30;54.70
19214;DHT22;9741;51.020;5.304;2023-07-13T02:15:18;16.30;54.80
19214;DHT22;9741;51.020;5.304;2023-07-13T02:17:45;16.30;54.90
19214;DHT22;9741;51.020;5.304;2023-07-13T02:20:12;16.30;55.00
19214;DHT22;9741;51.020;5.304;2023-07-13T02:22:39;16.40;55.20
19214;DHT22;9741;51.020;5.304;2023-07-13T02:25:06;16.40;55.10
19214;DHT22;9741;51.020;5.304;2023-07-13T02:27:33;16.50;55.20
19214;DHT22;9741;51.020;5.304;2023-07-13T02:30:02;16.50;55.20
19214;DHT22;9741;51.020;5.304;2023-07-13T02:32:29;16.60;55.30
19214;DHT22;9741;51.020;5.304;2023-07-13T02:34:56;16.60;55.30
19214;DHT22;9741;51.020;5.304;2023-07-13T02:37:23;16.60;55.30
19214;DHT22;9741;51.020;5.304;2023-07-13T02:39:50;16.60;55.30
19214;DHT22;9741;51.020;5.304;2023-07-13T02:42:17;16.60;55.40
19214;DHT22;9741;51.020;5.304;2023-07-13T02:44:44;16.50;55.40
19214;DHT22;9741;51.020;5.304;2023-07-13T02:47:13;16.50;55.50
19214;DHT22;9741;51.020;5.304;2023-07-13T02:49:40;16.50;55.60
19214;DHT22;9741;51.020;5.304;2023-07-13T02:52:07;16.40;55.60
19214;DHT22;9741;51.020;5.304;2023-07-13T02:54:34;16.40;55.70
19214;DHT22;9741;51.020;5.304;2023-07-13T02:57:01;16.40;55.90
19214;DHT22;9741;51.020;5.304;2023-07-13T02:59:28;16.30;55.90
19214;DHT22;9741;51.020;5.304;2023-07-13T03:01:55;16.30;56.00
19214;DHT22;9741;51.020;5.304;2023-07-13T03:04:24;16.30;56.20
19214;DHT22;9741;51.020;5.304;2023-07-13T03:06:51;16.30;56.20
19214;DHT22;9741;51.020;5.304;2023-07-13T03:09:18;16.40;56.40
19214;DHT22;9741;51.020;5.304;2023-07-13T03:11:45;16.30;56.40
19214;DHT22;9741;51.020;5.304;2023-07-13T03:14:11;16.40;56.60
19214;DHT22;9741;51.020;5.304;2023-07-13T03:16:38;16.40;56.60
19214;DHT22;9741;51.020;5.304;2023-07-13T03:19:05;16.50;56.60
19214;DHT22;9741;51.020;5.304;2023-07-13T03:21:34;16.60;56.70
19214;DHT22;9741;51.020;5.304;2023-07-13T03:24:01;16.70;56.80
19214;DHT22;9741;51.020;5.304;2023-07-13T03:26:28;16.70;56.70
19214;DHT22;9741;51.020;5.304;2023-07-13T03:28:55;16.70;56.70
19214;DHT22;9741;51.020;5.304;2023-07-13T03:31:24;16.80;56.80
19214;DHT22;9741;51.020;5.304;2023-07-13T03:33:52;16.90;56.80
19214;DHT22;9741;51.020;5.304;2023-07-13T03:36:21;16.90;56.80
19214;DHT22;9741;51.020;5.304;2023-07-13T03:38:52;17.00;56.90
19214;DHT22;9741;51.020;5.304;2023-07-13T03:41:20;17.10;56.90
19214;DHT22;9741;51.020;5.304;2023-07-13T03:43:48;17.10;56.90
19214;DHT22;9741;51.020;5.304;2023-07-13T03:46:15;17.20;56.90
19214;DHT22;9741;51.020;5.304;2023-07-13T03:48:44;17.20;56.90
19214;DHT22;9741;51.020;5.304;2023-07-13T03:51:13;17.20;56.80
19214;DHT22;9741;51.020;5.304;2023-07-13T03:53:42;17.30;56.90
19214;DHT22;9741;51.020;5.304;2023-07-13T03:56:12;17.30;56.90
19214;DHT22;9741;51.020;5.304;2023-07-13T03:58:42;17.30;56.90
19214;DHT22;9741;51.020;5.304;2023-07-13T04:01:11;17.30;56.90
19214;DHT22;9741;51.020;5.304;2023-07-13T04:03:38;17.40;57.00
19214;DHT22;9741;51.020;5.304;2023-07-13T04:06:07;17.30;56.90
19214;DHT22;9741;51.020;5.304;2023-07-13T04:08:36;17.40;57.10
19214;DHT22;9741;51.020;5.304;2023-07-13T04:11:04;17.30;57.00
19214;DHT22;9741;51.020;5.304;2023-07-13T04:13:32;17.40;57.60
19214;DHT22;9741;51.020;5.304;2023-07-13T04:15:59;17.40;57.10
19214;DHT22;9741;51.020;5.304;2023-07-13T04:18:26;17.40;57.10
19214;DHT22;9741;51.020;5.304;2023-07-13T04:20:53;17.40;57.10
19214;DHT22;9741;51.020;5.304;2023-07-13T04:23:20;17.50;57.20
19214;DHT22;9741;51.020;5.304;2023-07-13T04:25:48;17.50;57.10
19214;DHT22;9741;51.020;5.304;2023-07-13T04:28:20;17.60;57.20
19214;DHT22;9741;51.020;5.304;2023-07-13T04:30:49;17.60;57.20
19214;DHT22;9741;51.020;5.304;2023-07-13T04:33:17;17.60;57.20
19214;DHT22;9741;51.020;5.304;2023-07-13T04:35:48;17.70;57.30
19214;DHT22;9741;51.020;5.304;2023-07-13T04:38:15;17.80;57.30
19214;DHT22;9741;51.020;5.304;2023-07-13T04:40:44;17.80;57.90
19214;DHT22;9741;51.020;5.304;2023-07-13T04:43:11;17.90;57.40
19214;DHT22;9741;51.020;5.304;2023-07-13T04:45:38;17.90;57.30
19214;DHT22;9741;51.020;5.304;2023-07-13T04:48:07;18.00;57.30
19214;DHT22;9741;51.020;5.304;2023-07-13T04:50:36;18.00;57.20
19214;DHT22;9741;51.020;5.304;2023-07-13T04:53:03;18.10;57.20
19214;DHT22;9741;51.020;5.304;2023-07-13T04:55:30;18.10;57.20
19214;DHT22;9741;51.020;5.304;2023-07-13T04:57:58;18.10;57.20
19214;DHT22;9741;51.020;5.304;2023-07-13T05:00:25;18.20;57.20
19214;DHT22;9741;51.020;5.304;2023-07-13T05:02:54;18.20;57.20
19214;DHT22;9741;51.020;5.304;2023-07-13T05:05:23;18.20;57.20
19214;DHT22;9741;51.020;5.304;2023-07-13T05:07:50;18.20;57.20
19214;DHT22;9741;51.020;5.304;2023-07-13T05:10:17;18.20;57.20
19214;DHT22;9741;51.020;5.304;2023-07-13T05:12:44;18.20;57.20
19214;DHT22;9741;51.020;5.304;2023-07-13T05:15:11;18.20;57.10
19214;DHT22;9741;51.020;5.304;2023-07-13T05:17:38;18.30;57.20
19214;DHT22;9741;51.020;5.304;2023-07-13T05:20:07;18.30;57.20
19214;DHT22;9741;51.020;5.304;2023-07-13T05:22:35;18.40;57.20
19214;DHT22;9741;51.020;5.304;2023-07-13T05:25:05;18.50;57.20
19214;DHT22;9741;51.020;5.304;2023-07-13T05:27:33;18.50;57.10
19214;DHT22;9741;51.020;5.304;2023-07-13T05:30:02;18.60;57.20
19214;DHT22;9741;51.020;5.304;2023-07-13T05:32:29;18.60;57.60
19214;DHT22;9741;51.020;5.304;2023-07-13T05:34:56;18.70;57.00
19214;DHT22;9741;51.020;5.304;2023-07-13T05:37:23;18.80;57.10
19214;DHT22;9741;51.020;5.304;2023-07-13T05:39:52;18.90;57.00
19214;DHT22;9741;51.020;5.304;2023-07-13T05:42:19;19.00;56.90
19214;DHT22;9741;51.020;5.304;2023-07-13T05:44:46;19.10;56.90
19214;DHT22;9741;51.020;5.304;2023-07-13T05:47:13;19.20;56.80
19214;DHT22;9741;51.020;5.304;2023-07-13T05:49:40;19.30;56.70
19214;DHT22;9741;51.020;5.304;2023-07-13T05:52:07;19.30;56.50
19214;DHT22;9741;51.020;5.304;2023-07-13T05:54:35;19.40;56.60
19214;DHT22;9741;51.020;5.304;2023-07-13T05:57:04;19.40;56.50
19214;DHT22;9741;51.020;5.304;2023-07-13T05:59:31;19.40;56.40
19214;DHT22;9741;51.020;5.304;2023-07-13T06:01:58;19.40;56.40
19214;DHT22;9741;51.020;5.304;2023-07-13T06:04:25;19.40;56.20
19214;DHT22;9741;51.020;5.304;2023-07-13T06:06:53;19.40;56.30
19214;DHT22;9741;51.020;5.304;2023-07-13T06:09:20;19.40;56.30
19214;DHT22;9741;51.020;5.304;2023-07-13T06:11:47;19.40;56.20
19214;DHT22;9741;51.020;5.304;2023-07-13T06:14:15;19.40;56.20
19214;DHT22;9741;51.020;5.304;2023-07-13T06:16:42;19.40;56.20
19214;DHT22;9741;51.020;5.304;2023-07-13T06:19:09;19.50;56.30
19214;DHT22;9741;51.020;5.304;2023-07-13T06:21:36;19.50;56.30
19214;DHT22;9741;51.020;5.304;2023-07-13T06:24:04;19.60;56.30
19214;DHT22;9741;51.020;5.304;2023-07-13T06:26:31;19.60;56.30
19214;DHT22;9741;51.020;5.304;2023-07-13T06:28:58;19.70;56.30
19214;DHT22;9741;51.020;5.304;2023-07-13T06:31:27;19.80;56.30
19214;DHT22;9741;51.020;5.304;2023-07-13T06:33:54;19.90;56.30
19214;DHT22;9741;51.020;5.304;2023-07-13T06:36:21;20.00;56.10
19214;DHT22;9741;51.020;5.304;2023-07-13T06:38:48;20.00;56.00
19214;DHT22;9741;51.020;5.304;2023-07-13T06:41:15;20.10;56.00
19214;DHT22;9741;51.020;5.304;2023-07-13T06:43:42;20.20;55.90
19214;DHT22;9741;51.020;5.304;2023-07-13T06:46:10;20.40;56.00
19214;DHT22;9741;51.020;5.304;2023-07-13T06:48:38;20.40;55.70
19214;DHT22;9741;51.020;5.304;2023-07-13T06:51:05;20.60;55.80
19214;DHT22;9741;51.020;5.304;2023-07-13T06:53:32;20.70;55.70
19214;DHT22;9741;51.020;5.304;2023-07-13T06:55:59;20.90;55.50
19214;DHT22;9741;51.020;5.304;2023-07-13T06:58:26;21.10;55.40
19214;DHT22;9741;51.020;5.304;2023-07-13T07:00:53;21.30;55.20
19214;DHT22;9741;51.020;5.304;2023-07-13T07:03:20;21.40;55.00
19214;DHT22;9741;51.020;5.304;2023-07-13T07:05:49;21.40;54.60
19214;DHT22;9741;51.020;5.304;2023-07-13T07:08:16;21.50;54.50
19214;DHT22;9741;51.020;5.304;2023-07-13T07:10:43;21.50;54.40
19214;DHT22;9741;51.020;5.304;2023-07-13T07:13:11;21.50;54.20
19214;DHT22;9741;51.020;5.304;2023-07-13T07:15:38;21.50;54.20
19214;DHT22;9741;51.020;5.304;2023-07-13T07:18:05;21.60;54.20
19214;DHT22;9741;51.020;5.304;2023-07-13T07:20:32;21.50;54.20
19214;DHT22;9741;51.020;5.304;2023-07-13T07:23:01;21.60;54.20
19214;DHT22;9741;51.020;5.304;2023-07-13T07:25:28;21.60;54.10
19214;DHT22;9741;51.020;5.304;2023-07-13T07:27:57;21.60;53.90
19214;DHT22;9741;51.020;5.304;2023-07-13T07:30:25;21.70;54.00
19214;DHT22;9741;51.020;5.304;2023-07-13T07:32:52;21.80;53.90
19214;DHT22;9741;51.020;5.304;2023-07-13T07:35:19;21.80;53.70
19214;DHT22;9741;51.020;5.304;2023-07-13T07:37:46;21.90;53.60
19214;DHT22;9741;51.020;5.304;2023-07-13T07:40:15;21.90;53.50
19214;DHT22;9741;51.020;5.304;2023-07-13T07:42:42;22.00;53.50
19214;DHT22;9741;51.020;5.304;2023-07-13T07:45:09;22.20;53.60
19214;DHT22;9741;51.020;5.304;2023-07-13T07:47:37;22.40;53.60
19214;DHT22;9741;51.020;5.304;2023-07-13T07:50:05;22.60;53.30
19214;DHT22;9741;51.020;5.304;2023-07-13T07:52:33;22.80;53.00
19214;DHT22;9741;51.020;5.304;2023-07-13T07:55:00;23.10;52.80
19214;DHT22;9741;51.020;5.304;2023-07-13T07:57:28;23.30;52.50
19214;DHT22;9741;51.020;5.304;2023-07-13T07:59:55;23.50;52.20
19214;DHT22;9741;51.020;5.304;2023-07-13T08:02:23;23.80;52.10
19214;DHT22;9741;51.020;5.304;2023-07-13T08:04:51;24.10;52.00
19214;DHT22;9741;51.020;5.304;2023-07-13T08:07:18;24.50;51.70
19214;DHT22;9741;51.020;5.304;2023-07-13T08:09:45;24.80;51.40
19214;DHT22;9741;51.020;5.304;2023-07-13T08:12:12;25.10;50.90
19214;DHT22;9741;51.020;5.304;2023-07-13T08:14:41;25.30;50.30
19214;DHT22;9741;51.020;5.304;2023-07-13T08:17:08;25.40;49.90
19214;DHT22;9741;51.020;5.304;2023-07-13T08:19:35;25.40;50.20
19214;DHT22;9741;51.020;5.304;2023-07-13T08:22:02;25.50;49.40
19214;DHT22;9741;51.020;5.304;2023-07-13T08:24:29;25.60;49.30
19214;DHT22;9741;51.020;5.304;2023-07-13T08:26:56;25.90;49.10
19214;DHT22;9741;51.020;5.304;2023-07-13T08:29:23;26.10;48.70
19214;DHT22;9741;51.020;5.304;2023-07-13T08:31:51;26.30;48.50
19214;DHT22;9741;51.020;5.304;2023-07-13T08:34:19;26.70;48.00
19214;DHT22;9741;51.020;5.304;2023-07-13T08:36:46;26.90;47.60
19214;DHT22;9741;51.020;5.304;2023-07-13T08:39:13;27.20;47.30
19214;DHT22;9741;51.020;5.304;2023-07-13T08:41:40;27.40;46.70
19214;DHT22;9741;51.020;5.304;2023-07-13T08:44:18;27.60;46.30
19214;DHT22;9741;51.020;5.304;2023-07-13T08:46:47;27.60;45.90
19214;DHT22;9741;51.020;5.304;2023-07-13T08:49:18;27.60;45.90
19214;DHT22;9741;51.020;5.304;2023-07-13T08:51:52;27.70;45.40
19214;DHT22;9741;51.020;5.304;2023-07-13T08:54:26;27.80;45.00
19214;DHT22;9741;51.020;5.304;2023-07-13T08:56:56;28.10;45.70
19214;DHT22;9741;51.020;5.304;2023-07-13T08:59:26;28.50;44.80
19214;DHT22;9741;51.020;5.304;2023-07-13T09:02:20;28.70;44.20
19214;DHT22;9741;51.020;5.304;2023-07-13T09:04:55;28.60;44.10
19214;DHT22;9741;51.020;5.304;2023-07-13T09:07:32;28.60;43.90
19214;DHT22;9741;51.020;5.304;2023-07-13T09:10:09;28.50;43.90
19214;DHT22;9741;51.020;5.304;2023-07-13T09:12:48;28.30;43.90
19214;DHT22;9741;51.020;5.304;2023-07-13T09:15:23;28.20;43.70
19214;DHT22;9741;51.020;5.304;2023-07-13T09:17:52;28.00;43.40
19214;DHT22;9741;51.020;5.304;2023-07-13T09:20:27;27.70;43.40
19214;DHT22;9741;51.020;5.304;2023-07-13T09:22:56;27.40;43.60
19214;DHT22;9741;51.020;5.304;2023-07-13T09:25:29;27.20;43.80
19214;DHT22;9741;51.020;5.304;2023-07-13T09:28:01;27.10;44.00
19214;DHT22;9741;51.020;5.304;2023-07-13T09:30:36;27.10;44.00
19214;DHT22;9741;51.020;5.304;2023-07-13T09:33:05;27.20;44.00
19214;DHT22;9741;51.020;5.304;2023-07-13T09:35:34;27.20;44.00
19214;DHT22;9741;51.020;5.304;2023-07-13T09:38:11;27.20;44.20
19214;DHT22;9741;51.020;5.304;2023-07-13T09:40:46;27.20;43.90
19214;DHT22;9741;51.020;5.304;2023-07-13T09:43:17;27.20;43.70
19214;DHT22;9741;51.020;5.304;2023-07-13T09:45:46;27.20;43.70
19214;DHT22;9741;51.020;5.304;2023-07-13T09:48:15;27.40;43.90
19214;DHT22;9741;51.020;5.304;2023-07-13T09:50:44;27.40;43.60
19214;DHT22;9741;51.020;5.304;2023-07-13T09:53:13;27.50;43.40
19214;DHT22;9741;51.020;5.304;2023-07-13T09:55:42;27.50;43.10
19214;DHT22;9741;51.020;5.304;2023-07-13T09:58:12;27.60;43.00
19214;DHT22;9741;51.020;5.304;2023-07-13T10:00:40;27.70;42.80
19214;DHT22;9741;51.020;5.304;2023-07-13T10:03:17;27.70;42.70
19214;DHT22;9741;51.020;5.304;2023-07-13T10:05:49;27.70;42.60
19214;DHT22;9741;51.020;5.304;2023-07-13T10:08:19;27.90;42.50
19214;DHT22;9741;51.020;5.304;2023-07-13T10:10:52;27.80;42.30
19214;DHT22;9741;51.020;5.304;2023-07-13T10:13:29;27.70;42.00
19214;DHT22;9741;51.020;5.304;2023-07-13T10:15:59;27.50;42.00
19214;DHT22;9741;51.020;5.304;2023-07-13T10:18:26;27.30;42.10
19214;DHT22;9741;51.020;5.304;2023-07-13T10:21:10;27.20;42.30
19214;DHT22;9741;51.020;5.304;2023-07-13T10:23:39;27.30;42.60
19214;DHT22;9741;51.020;5.304;2023-07-13T10:26:13;27.50;42.50
19214;DHT22;9741;51.020;5.304;2023-07-13T10:28:42;27.50;42.00
19214;DHT22;9741;51.020;5.304;2023-07-13T10:31:13;27.40;41.90
19214;DHT22;9741;51.020;5.304;2023-07-13T10:33:40;27.40;41.90
19214;DHT22;9741;51.020;5.304;2023-07-13T10:36:15;27.40;41.90
19214;DHT22;9741;51.020;5.304;2023-07-13T10:38:43;27.40;41.70
19214;DHT22;9741;51.020;5.304;2023-07-13T10:41:15;27.60;41.80
19214;DHT22;9741;51.020;5.304;2023-07-13T10:43:45;27.70;41.70
19214;DHT22;9741;51.020;5.304;2023-07-13T10:46:18;27.70;41.60
19214;DHT22;9741;51.020;5.304;2023-07-13T10:48:49;27.80;41.30
19214;DHT22;9741;51.020;5.304;2023-07-13T10:51:19;27.90;41.20
19214;DHT22;9741;51.020;5.304;2023-07-13T10:54:11;28.00;41.20
19214;DHT22;9741;51.020;5.304;2023-07-13T10:56:41;28.30;41.10
19214;DHT22;9741;51.020;5.304;2023-07-13T10:59:12;28.50;40.50
19214;DHT22;9741;51.020;5.304;2023-07-13T11:01:48;28.70;40.30
19214;DHT22;9741;51.020;5.304;2023-07-13T11:04:15;28.70;40.10
19214;DHT22;9741;51.020;5.304;2023-07-13T11:06:48;28.50;40.00
19214;DHT22;9741;51.020;5.304;2023-07-13T11:09:35;28.20;39.90
19214;DHT22;9741;51.020;5.304;2023-07-13T11:12:08;28.20;40.00
19214;DHT22;9741;51.020;5.304;2023-07-13T11:14:43;28.30;40.70
19214;DHT22;9741;51.020;5.304;2023-07-13T11:17:48;28.30;39.90
19214;DHT22;9741;51.020;5.304;2023-07-13T11:20:30;28.30;40.10
19214;DHT22;9741;51.020;5.304;2023-07-13T11:25:51;28.20;39.80
19214;DHT22;9741;51.020;5.304;2023-07-13T11:28:22;28.10;39.80
19214;DHT22;9741;51.020;5.304;2023-07-13T11:31:03;28.10;39.70
19214;DHT22;9741;51.020;5.304;2023-07-13T11:33:55;28.10;39.70
19214;DHT22;9741;51.020;5.304;2023-07-13T11:36:29;28.10;39.70
19214;DHT22;9741;51.020;5.304;2023-07-13T11:39:03;28.20;39.70
19214;DHT22;9741;51.020;5.304;2023-07-13T11:41:35;28.40;39.40
19214;DHT22;9741;51.020;5.304;2023-07-13T11:44:12;28.60;39.10
19214;DHT22;9741;51.020;5.304;2023-07-13T11:46:42;28.70;38.90
19214;DHT22;9741;51.020;5.304;2023-07-13T11:49:15;28.70;38.80
19214;DHT22;9741;51.020;5.304;2023-07-13T11:51:43;28.70;38.80
19214;DHT22;9741;51.020;5.304;2023-07-13T11:54:24;28.80;38.80
19214;DHT22;9741;51.020;5.304;2023-07-13T11:56:52;28.90;38.70
19214;DHT22;9741;51.020;5.304;2023-07-13T11:59:20;28.90;38.20
19214;DHT22;9741;51.020;5.304;2023-07-13T12:01:51;28.90;38.20
19214;DHT22;9741;51.020;5.304;2023-07-13T12:04:22;28.80;38.20
19214;DHT22;9741;51.020;5.304;2023-07-13T12:06:56;28.60;37.90
19214;DHT22;9741;51.020;5.304;2023-07-13T12:09:26;28.50;37.80
19214;DHT22;9741;51.020;5.304;2023-07-13T12:11:57;28.20;37.80
19214;DHT22;9741;51.020;5.304;2023-07-13T12:14:25;28.00;38.10
19214;DHT22;9741;51.020;5.304;2023-07-13T12:16:53;27.90;38.40
19214;DHT22;9741;51.020;5.304;2023-07-13T12:19:24;28.00;38.60
19214;DHT22;9741;51.020;5.304;2023-07-13T12:21:54;28.10;38.60
19214;DHT22;9741;51.020;5.304;2023-07-13T12:24:22;28.30;38.60
19214;DHT22;9741;51.020;5.304;2023-07-13T12:26:59;28.30;38.20
19214;DHT22;9741;51.020;5.304;2023-07-13T12:29:27;28.30;38.00
19214;DHT22;9741;51.020;5.304;2023-07-13T12:31:54;28.30;38.10
19214;DHT22;9741;51.020;5.304;2023-07-13T12:34:23;28.40;37.90
19214;DHT22;9741;51.020;5.304;2023-07-13T12:36:51;28.30;37.60
19214;DHT22;9741;51.020;5.304;2023-07-13T12:39:21;28.20;37.60
19214;DHT22;9741;51.020;5.304;2023-07-13T12:41:49;28.00;37.50
19214;DHT22;9741;51.020;5.304;2023-07-13T12:44:21;27.80;38.10
19214;DHT22;9741;51.020;5.304;2023-07-13T12:46:57;27.60;37.40
19214;DHT22;9741;51.020;5.304;2023-07-13T12:49:27;27.50;37.70
19214;DHT22;9741;51.020;5.304;2023-07-13T12:52:00;27.60;37.80
19214;DHT22;9741;51.020;5.304;2023-07-13T12:54:28;27.70;37.70
19214;DHT22;9741;51.020;5.304;2023-07-13T12:56:57;27.60;37.50
19214;DHT22;9741;51.020;5.304;2023-07-13T12:59:31;27.60;37.30
19214;DHT22;9741;51.020;5.304;2023-07-13T13:02:02;27.60;37.30
19214;DHT22;9741;51.020;5.304;2023-07-13T13:04:40;27.70;37.50
19214;DHT22;9741;51.020;5.304;2023-07-13T13:07:08;27.70;37.50
19214;DHT22;9741;51.020;5.304;2023-07-13T13:09:36;27.90;37.50
19214;DHT22;9741;51.020;5.304;2023-07-13T13:12:03;27.90;37.30
19214;DHT22;9741;51.020;5.304;2023-07-13T13:14:32;27.90;37.40
19214;DHT22;9741;51.020;5.304;2023-07-13T13:16:59;27.80;37.30
19214;DHT22;9741;51.020;5.304;2023-07-13T13:19:28;27.60;37.40
19214;DHT22;9741;51.020;5.304;2023-07-13T13:21:56;27.30;38.00
19214;DHT22;9741;51.020;5.304;2023-07-13T13:24:27;26.70;39.30
19214;DHT22;9741;51.020;5.304;2023-07-13T13:26:54;25.90;40.20
19214;DHT22;9741;51.020;5.304;2023-07-13T13:29:23;25.10;41.30
19214;DHT22;9741;51.020;5.304;2023-07-13T13:31:52;24.50;42.50
19214;DHT22;9741;51.020;5.304;2023-07-13T13:34:21;24.00;43.30
19214;DHT22;9741;51.020;5.304;2023-07-13T13:36:49;23.50;44.00
19214;DHT22;9741;51.020;5.304;2023-07-13T13:39:22;23.10;44.70
19214;DHT22;9741;51.020;5.304;2023-07-13T13:41:51;22.80;45.50
19214;DHT22;9741;51.020;5.304;2023-07-13T13:44:19;22.60;46.00
19214;DHT22;9741;51.020;5.304;2023-07-13T13:46:48;22.40;46.60
19214;DHT22;9741;51.020;5.304;2023-07-13T13:49:19;22.30;47.30
19214;DHT22;9741;51.020;5.304;2023-07-13T13:51:48;22.20;47.70
19214;DHT22;9741;51.020;5.304;2023-07-13T13:54:17;22.10;48.10
19214;DHT22;9741;51.020;5.304;2023-07-13T13:56:45;22.10;48.60
19214;DHT22;9741;51.020;5.304;2023-07-13T13:59:13;22.20;48.90
19214;DHT22;9741;51.020;5.304;2023-07-13T14:01:41;22.30;49.00
19214;DHT22;9741;51.020;5.304;2023-07-13T14:04:13;22.30;49.00
19214;DHT22;9741;51.020;5.304;2023-07-13T14:06:42;22.40;49.10
19214;DHT22;9741;51.020;5.304;2023-07-13T14:09:10;22.50;49.20
19214;DHT22;9741;51.020;5.304;2023-07-13T14:11:38;22.50;49.20
19214;DHT22;9741;51.020;5.304;2023-07-13T14:14:11;22.50;49.40
19214;DHT22;9741;51.020;5.304;2023-07-13T14:16:39;22.60;49.70
19214;DHT22;9741;51.020;5.304;2023-07-13T14:19:09;22.60;49.70
19214;DHT22;9741;51.020;5.304;2023-07-13T14:21:36;22.60;49.80
19214;DHT22;9741;51.020;5.304;2023-07-13T14:24:06;22.60;49.80
19214;DHT22;9741;51.020;5.304;2023-07-13T14:26:40;22.60;49.80
19214;DHT22;9741;51.020;5.304;2023-07-13T14:29:12;22.60;49.80
19214;DHT22;9741;51.020;5.304;2023-07-13T14:31:40;22.60;49.90
19214;DHT22;9741;51.020;5.304;2023-07-13T14:34:07;22.60;49.90
19214;DHT22;9741;51.020;5.304;2023-07-13T14:36:38;22.70;50.00
19214;DHT22;9741;51.020;5.304;2023-07-13T14:39:12;22.80;50.00
19214;DHT22;9741;51.020;5.304;2023-07-13T14:41:40;22.90;50.00
19214;DHT22;9741;51.020;5.304;2023-07-13T14:44:13;23.00;50.00
19214;DHT22;9741;51.020;5.304;2023-07-13T14:46:42;23.10;49.70
19214;DHT22;9741;51.020;5.304;2023-07-13T14:49:15;23.20;49.70
19214;DHT22;9741;51.020;5.304;2023-07-13T14:51:43;23.30;49.60
19214;DHT22;9741;51.020;5.304;2023-07-13T14:54:12;23.50;49.50
19214;DHT22;9741;51.020;5.304;2023-07-13T14:56:39;23.70;49.30
19214;DHT22;9741;51.020;5.304;2023-07-13T14:59:06;23.90;49.20
19214;DHT22;9741;51.020;5.304;2023-07-13T15:01:33;24.00;49.10
19214;DHT22;9741;51.020;5.304;2023-07-13T15:04:02;24.20;48.80
19214;DHT22;9741;51.020;5.304;2023-07-13T15:06:30;24.40;48.60
19214;DHT22;9741;51.020;5.304;2023-07-13T15:08:57;24.50;48.40
19214;DHT22;9741;51.020;5.304;2023-07-13T15:11:25;24.50;48.20
19214;DHT22;9741;51.020;5.304;2023-07-13T15:13:53;24.50;48.00
19214;DHT22;9741;51.020;5.304;2023-07-13T15:16:22;24.70;48.10
19214;DHT22;9741;51.020;5.304;2023-07-13T15:18:50;24.90;47.90
19214;DHT22;9741;51.020;5.304;2023-07-13T15:21:22;25.00;47.50
19214;DHT22;9741;51.020;5.304;2023-07-13T15:23:50;25.30;47.30
19214;DHT22;9741;51.020;5.304;2023-07-13T15:26:18;25.40;46.80
19214;DHT22;9741;51.020;5.304;2023-07-13T15:28:47;25.60;46.50
19214;DHT22;9741;51.020;5.304;2023-07-13T15:31:20;25.90;46.20
19214;DHT22;9741;51.020;5.304;2023-07-13T15:33:48;26.00;45.80
19214;DHT22;9741;51.020;5.304;2023-07-13T15:36:16;26.10;45.50
19214;DHT22;9741;51.020;5.304;2023-07-13T15:38:44;26.20;45.50
19214;DHT22;9741;51.020;5.304;2023-07-13T15:41:22;26.20;45.60
19214;DHT22;9741;51.020;5.304;2023-07-13T15:43:53;26.20;45.40
19214;DHT22;9741;51.020;5.304;2023-07-13T15:46:22;26.20;45.30
19214;DHT22;9741;51.020;5.304;2023-07-13T15:48:50;26.20;45.00
19214;DHT22;9741;51.020;5.304;2023-07-13T15:51:20;26.10;44.60
19214;DHT22;9741;51.020;5.304;2023-07-13T15:53:49;26.10;44.30
19214;DHT22;9741;51.020;5.304;2023-07-13T15:56:19;26.00;44.30
19214;DHT22;9741;51.020;5.304;2023-07-13T15:58:48;26.10;44.40
19214;DHT22;9741;51.020;5.304;2023-07-13T16:01:17;26.10;44.40